Time;durP1;ratioP1;P1;durP2;ratioP2;P2;SDS_P1;SDS_P2;PMS_P1;PMS_P2;Temp;Humidity;BMP_temperature;BMP_pressure;BME280_temperature;BME280_humidity;BME280_pressure;Samples;Min_cycle;Max_cycle;Signal;HPM_P1;HPM_P2
2023/11/18 00:01:21;;;;;;;1.97;1.57;;;;;;;6.65;100.00;97040.47;5037341;28;20234;-67
2023/11/18 00:03:48;;;;;;;3.03;2.00;;;;;;;6.66;100.00;97040.31;5036017;28;20229;-68
2023/11/18 00:06:15;;;;;;;4.03;1.70;;;;;;;6.60;100.00;97034.78;5036621;28;20232;-67
2023/11/18 00:08:43;;;;;;;3.00;1.83;;;;;;;6.69;100.00;97029.56;5037108;28;20201;-69
2023/11/18 00:11:10;;;;;;;2.53;1.90;;;;;;;6.68;100.00;97022.66;5037260;28;20203;-68
2023/11/18 00:13:38;;;;;;;2.20;1.60;;;;;;;6.60;100.00;97022.50;5036868;28;20200;-69
2023/11/18 00:16:05;;;;;;;2.77;1.83;;;;;;;6.62;100.00;97020.59;5036133;28;20332;-69
2023/11/18 00:18:32;;;;;;;5.10;1.60;;;;;;;6.59;100.00;97025.28;5037169;28;20287;-68
2023/11/18 00:20:58;;;;;;;4.40;2.13;;;;;;;6.46;100.00;97028.13;5036447;28;20225;-69
2023/11/18 00:23:26;;;;;;;3.00;1.63;;;;;;;6.49;100.00;97027.88;5036786;28;20205;-67
2023/11/18 00:25:54;;;;;;;2.00;1.57;;;;;;;6.74;100.00;97025.56;5035630;28;20282;-69
2023/11/18 00:28:20;;;;;;;2.47;1.67;;;;;;;6.61;100.00;97031.22;5037629;28;20205;-67
2023/11/18 00:30:47;;;;;;;4.70;1.83;;;;;;;6.49;100.00;97033.09;5036095;28;20308;-67
2023/11/18 00:33:13;;;;;;;2.17;1.73;;;;;;;6.44;100.00;97031.81;5037047;28;20205;-66
2023/11/18 00:35:41;;;;;;;4.10;1.80;;;;;;;6.42;100.00;97031.97;5035667;28;20225;-67
2023/11/18 00:38:07;;;;;;;3.80;1.80;;;;;;;6.46;100.00;97037.78;5036620;28;20201;-69
2023/11/18 00:40:35;;;;;;;2.97;1.60;;;;;;;6.42;100.00;97031.97;5035850;28;20243;-67
2023/11/18 00:43:03;;;;;;;3.30;1.60;;;;;;;6.56;100.00;97030.78;5036170;28;20201;-66
2023/11/18 00:45:29;;;;;;;3.57;2.00;;;;;;;6.52;100.00;97029.38;5036098;28;20229;-67
2023/11/18 00:47:56;;;;;;;3.47;2.00;;;;;;;6.38;100.00;97027.97;5036151;28;20671;-68
2023/11/18 00:50:23;;;;;;;2.70;1.63;;;;;;;6.42;100.00;97033.78;5036723;28;20207;-68
2023/11/18 00:52:49;;;;;;;3.10;1.70;;;;;;;6.44;100.00;97037.06;5035625;28;20244;-69
2023/11/18 00:55:17;;;;;;;2.53;1.73;;;;;;;6.49;100.00;97045.34;5035876;28;20225;-68
2023/11/18 00:57:44;;;;;;;3.30;1.73;;;;;;;6.66;100.00;97042.94;5036208;28;20205;-68
2023/11/18 01:00:15;;;;;;;4.60;2.80;;;;;;;6.74;100.00;97045.72;5035698;28;20211;-69
2023/11/18 01:02:42;;;;;;;3.23;1.87;;;;;;;6.73;100.00;97047.50;5035585;28;20205;-67
2023/11/18 01:05:10;;;;;;;1.93;1.50;;;;;;;6.76;100.00;97051.66;5035128;28;20612;-67
2023/11/18 01:07:37;;;;;;;2.17;1.60;;;;;;;6.64;100.00;97044.84;5036096;28;20740;-68
2023/11/18 01:10:04;;;;;;;1.90;1.63;;;;;;;6.56;100.00;97042.06;5036084;28;20207;-69
2023/11/18 01:12:31;;;;;;;2.33;1.60;;;;;;;6.36;100.00;97029.88;5036393;28;20204;-67
2023/11/18 01:14:57;;;;;;;2.87;1.90;;;;;;;6.54;100.00;97033.50;5035501;28;20217;-67
2023/11/18 01:17:25;;;;;;;2.67;1.70;;;;;;;6.56;100.00;97030.78;5035818;28;20212;-69
2023/11/18 01:19:52;;;;;;;2.60;1.70;;;;;;;6.60;100.00;97038.22;5035490;28;20204;-69
2023/11/18 01:22:18;;;;;;;2.90;1.80;;;;;;;6.44;100.00;97032.69;5036304;28;20224;-68
2023/11/18 01:24:45;;;;;;;2.57;1.70;;;;;;;6.58;100.00;97029.69;5034512;28;20221;-67
2023/11/18 01:27:12;;;;;;;3.13;1.83;;;;;;;6.57;100.00;97033.25;5035836;28;20193;-66
2023/11/18 01:29:39;;;;;;;2.00;1.40;;;;;;;6.54;100.00;97035.31;5036438;28;20211;-67
2023/11/18 01:32:09;;;;;;;3.63;1.97;;;;;;;6.49;100.00;97034.88;5035552;28;20197;-68
2023/11/18 01:34:38;;;;;;;3.23;2.00;;;;;;;6.68;100.00;97036.59;5035064;28;20223;-68
2023/11/18 01:37:07;;;;;;;2.63;1.80;;;;;;;6.54;100.00;97045.78;5035115;28;20203;-68
2023/11/18 01:39:33;;;;;;;3.80;2.17;;;;;;;6.51;100.00;97049.50;5036427;28;21118;-67
2023/11/18 01:42:00;;;;;;;3.17;1.93;;;;;;;6.58;100.00;97053.25;5035531;28;20217;-67
2023/11/18 01:44:28;;;;;;;3.20;2.07;;;;;;;6.48;100.00;97060.25;5035102;28;21328;-67
2023/11/18 01:46:54;;;;;;;6.40;2.30;;;;;;;6.62;100.00;97062.50;5035281;28;20213;-67
2023/11/18 01:49:22;;;;;;;3.00;2.00;;;;;;;6.55;100.00;97056.13;5036229;28;20205;-68
2023/11/18 01:51:52;;;;;;;5.43;2.23;;;;;;;6.79;100.00;97059.22;5035350;28;20209;-67
2023/11/18 01:54:19;;;;;;;2.83;1.70;;;;;;;6.58;100.00;97066.34;5035643;28;20724;-68
2023/11/18 01:56:48;;;;;;;3.10;2.10;;;;;;;6.89;100.00;97067.94;5035633;28;20206;-67
2023/11/18 01:59:18;;;;;;;4.90;2.17;;;;;;;6.74;100.00;97071.91;5035411;28;20649;-68
2023/11/18 02:01:47;;;;;;;2.60;1.90;;;;;;;6.76;100.00;97081.28;5035303;28;20220;-67
2023/11/18 02:04:14;;;;;;;2.83;1.83;;;;;;;6.66;100.00;97074.38;5034712;28;20225;-66
2023/11/18 02:06:41;;;;;;;5.47;2.10;;;;;;;6.62;100.00;97074.75;5035251;28;20589;-68
2023/11/18 02:09:09;;;;;;;2.80;1.73;;;;;;;6.65;100.00;97077.94;5035605;28;20201;-69
2023/11/18 02:11:41;;;;;;;3.47;1.93;;;;;;;6.76;100.00;97076.03;5035775;28;20194;-68
2023/11/18 02:14:10;;;;;;;4.00;2.10;;;;;;;6.72;100.00;97071.19;5034833;28;20745;-68
2023/11/18 02:16:39;;;;;;;2.83;1.93;;;;;;;6.79;100.00;97074.94;5034943;28;20205;-68
2023/11/18 02:19:15;;;;;;;3.37;1.97;;;;;;;6.87;100.00;97070.69;5035899;28;20292;-67
2023/11/18 02:21:42;;;;;;;4.37;2.00;;;;;;;6.73;100.00;97059.75;5035202;28;20220;-68
2023/11/18 02:24:10;;;;;;;3.43;1.53;;;;;;;6.67;100.00;97065.53;5035356;28;20225;-68
2023/11/18 02:26:38;;;;;;;2.93;1.63;;;;;;;6.76;100.00;97064.75;5034566;28;20215;-67
2023/11/18 02:29:04;;;;;;;2.90;1.90;;;;;;;6.57;100.00;97062.06;5035271;28;20197;-69
2023/11/18 02:31:37;;;;;;;2.43;1.60;;;;;;;6.70;100.00;97060.03;5034935;28;20201;-67
2023/11/18 02:34:08;;;;;;;2.13;1.60;;;;;;;6.55;100.00;97065.78;5035570;28;20223;-69
2023/11/18 02:36:40;;;;;;;4.53;2.00;;;;;;;6.40;100.00;97062.69;5036777;28;20221;-68
2023/11/18 02:39:15;;;;;;;4.07;2.00;;;;;;;6.26;100.00;97077.91;5038480;28;20201;-68
2023/11/18 02:41:48;;;;;;;2.60;1.70;;;;;;;6.34;100.00;97070.22;5038261;28;20320;-68
2023/11/18 02:44:17;;;;;;;3.73;1.70;;;;;;;6.21;100.00;97080.94;5038310;28;20213;-68
2023/11/18 02:46:44;;;;;;;2.03;1.47;;;;;;;6.16;100.00;97085.72;5037904;28;20335;-68
2023/11/18 02:49:11;;;;;;;2.67;1.53;;;;;;;6.16;100.00;97093.56;5039121;28;20578;-67
2023/11/18 02:51:39;;;;;;;2.87;1.63;;;;;;;6.02;100.00;97097.47;5039025;28;20732;-69
2023/11/18 02:54:06;;;;;;;3.90;1.67;;;;;;;6.27;100.00;97092.66;5038036;28;20308;-68
2023/11/18 02:56:32;;;;;;;2.87;1.77;;;;;;;6.14;100.00;97092.03;5038121;28;20207;-67
2023/11/18 02:59:00;;;;;;;2.20;1.70;;;;;;;6.32;100.00;97088.69;5038729;28;20205;-67
2023/11/18 03:01:27;;;;;;;3.03;1.87;;;;;;;6.27;100.00;97088.22;5038217;28;20221;-68
2023/11/18 03:03:54;;;;;;;2.47;1.70;;;;;;;6.29;100.00;97090.75;5037866;28;20225;-68
2023/11/18 03:06:21;;;;;;;2.53;1.70;;;;;;;6.38;100.00;97101.25;5037755;28;20592;-67
2023/11/18 03:08:47;;;;;;;3.03;1.80;;;;;;;6.21;100.00;97098.41;5038631;28;20205;-68
2023/11/18 03:11:14;;;;;;;2.50;1.40;;;;;;;6.17;100.00;97103.09;5038162;28;20201;-67
2023/11/18 03:13:40;;;;;;;2.80;1.80;;;;;;;6.25;100.00;97107.63;5037956;28;20562;-68
2023/11/18 03:16:11;;;;;;;2.90;1.73;;;;;;;6.36;100.00;97103.16;5036941;28;20211;-69
2023/11/18 03:18:39;;;;;;;4.70;2.20;;;;;;;6.15;100.00;97110.22;5037789;28;20205;-68
2023/11/18 03:21:07;;;;;;;2.07;1.30;;;;;;;6.41;100.00;97111.44;5037710;28;20197;-67
2023/11/18 03:23:34;;;;;;;3.10;1.50;;;;;;;6.32;100.00;97106.19;5038018;28;20571;-68
2023/11/18 03:26:00;;;;;;;2.47;1.50;;;;;;;6.37;100.00;97098.78;5036732;28;20202;-68
2023/11/18 03:28:27;;;;;;;3.20;1.73;;;;;;;6.45;100.00;97097.13;5038374;28;20216;-69
2023/11/18 03:30:53;;;;;;;2.70;1.53;;;;;;;6.56;100.00;97093.63;5037790;28;20834;-67
2023/11/18 03:33:21;;;;;;;3.30;2.10;;;;;;;6.62;100.00;97093.91;5037865;28;20209;-67
2023/11/18 03:35:48;;;;;;;2.80;1.70;;;;;;;6.62;100.00;97085.22;5036807;28;20618;-67
2023/11/18 03:38:17;;;;;;;2.33;1.60;;;;;;;6.55;100.00;97092.78;5037808;28;20217;-69
2023/11/18 03:40:44;;;;;;;1.97;1.50;;;;;;;6.49;100.00;97090.72;5037624;28;20623;-68
2023/11/18 03:43:11;;;;;;;3.80;1.60;;;;;;;6.50;100.00;97091.53;5037172;28;20221;-67
2023/11/18 03:45:39;;;;;;;2.70;1.40;;;;;;;6.56;100.00;97086.59;5036930;28;20283;-69
2023/11/18 03:48:06;;;;;;;2.70;1.80;;;;;;;6.46;100.00;97088.34;5036606;28;20375;-67
2023/11/18 03:50:34;;;;;;;2.40;1.73;;;;;;;6.72;100.00;97086.91;5037750;28;20691;-67
2023/11/18 03:53:01;;;;;;;2.83;1.33;;;;;;;6.65;100.00;97081.38;5037416;28;20213;-67
2023/11/18 03:55:27;;;;;;;3.57;1.83;;;;;;;6.70;100.00;97096.69;5036464;28;20236;-67
2023/11/18 03:57:54;;;;;;;2.30;1.50;;;;;;;6.65;100.00;97096.25;5037083;28;20918;-69
2023/11/18 04:00:21;;;;;;;3.23;1.57;;;;;;;6.55;100.00;97103.25;5038726;28;20216;-67
2023/11/18 04:02:47;;;;;;;4.13;1.80;;;;;;;6.52;100.00;97089.59;5036961;28;20231;-68
2023/11/18 04:05:14;;;;;;;2.73;1.80;;;;;;;6.70;100.00;97089.66;5035940;28;20221;-69
2023/11/18 04:07:42;;;;;;;3.43;1.50;;;;;;;6.90;100.00;97093.19;5037584;28;20209;-68
2023/11/18 04:10:10;;;;;;;3.17;2.10;;;;;;;6.86;100.00;97091.78;5036399;28;21156;-68
2023/11/18 04:12:37;;;;;;;2.30;1.80;;;;;;;6.75;100.00;97094.50;5036171;28;20290;-67
2023/11/18 04:15:04;;;;;;;2.90;2.00;;;;;;;6.73;100.00;97102.50;5036158;28;20217;-68
2023/11/18 04:17:31;;;;;;;3.97;1.83;;;;;;;6.70;100.00;97107.19;5037570;28;20216;-68
2023/11/18 04:19:57;;;;;;;2.67;1.63;;;;;;;6.68;100.00;97119.56;5036592;28;20202;-68
2023/11/18 04:22:24;;;;;;;2.20;1.43;;;;;;;6.57;100.00;97117.06;5036727;28;20236;-67
2023/11/18 04:24:52;;;;;;;2.57;1.50;;;;;;;6.81;100.00;97107.06;5036079;28;20235;-67
2023/11/18 04:27:19;;;;;;;2.30;1.67;;;;;;;6.64;100.00;97112.13;5036424;28;20205;-69
2023/11/18 04:29:45;;;;;;;2.00;1.33;;;;;;;6.51;100.00;97114.13;5037219;28;20201;-69
2023/11/18 04:32:13;;;;;;;2.73;1.57;;;;;;;6.65;100.00;97106.75;5036410;28;20197;-68
2023/11/18 04:34:42;;;;;;;2.07;1.37;;;;;;;6.64;100.00;97101.63;5036182;28;20601;-69
2023/11/18 04:37:09;;;;;;;1.93;1.40;;;;;;;6.65;100.00;97102.31;5036178;28;20202;-66
2023/11/18 04:39:36;;;;;;;2.30;1.70;;;;;;;6.59;100.00;97109.06;5037058;28;20205;-66
2023/11/18 04:42:05;;;;;;;1.77;1.50;;;;;;;6.78;100.00;97110.81;5036123;28;20244;-68
2023/11/18 04:44:32;;;;;;;2.37;1.70;;;;;;;6.71;100.00;97101.81;5036208;28;20229;-67
2023/11/18 04:46:58;;;;;;;2.13;1.60;;;;;;;6.57;100.00;97101.34;5036243;28;20201;-67
2023/11/18 04:49:25;;;;;;;2.57;1.40;;;;;;;6.56;100.00;97110.16;5036429;28;20212;-69
2023/11/18 04:51:51;;;;;;;2.80;1.80;;;;;;;6.51;100.00;97103.66;5036074;28;20954;-67
2023/11/18 04:54:19;;;;;;;4.03;1.90;;;;;;;6.42;100.00;97107.88;5035177;28;20233;-69
2023/11/18 04:56:46;;;;;;;1.93;1.37;;;;;;;6.42;100.00;97105.25;5036594;28;20205;-69
2023/11/18 04:59:14;;;;;;;2.10;1.50;;;;;;;6.62;100.00;97099.16;5035035;28;20667;-69
2023/11/18 05:01:40;;;;;;;2.30;1.53;;;;;;;6.29;100.00;97096.81;5036395;28;20209;-69
2023/11/18 05:04:08;;;;;;;2.43;1.60;;;;;;;6.39;100.00;97091.59;5035550;28;20889;-68
2023/11/18 05:06:34;;;;;;;2.77;1.83;;;;;;;6.37;100.00;97096.97;5035708;28;21001;-66
2023/11/18 05:09:01;;;;;;;2.57;1.63;;;;;;;6.29;100.00;97103.84;5036060;28;20201;-68
2023/11/18 05:11:27;;;;;;;2.03;1.50;;;;;;;6.40;100.00;97099.34;5036655;28;20679;-69
2023/11/18 05:13:56;;;;;;;2.30;1.60;;;;;;;6.44;100.00;97095.50;5036284;28;20227;-67
2023/11/18 05:16:24;;;;;;;2.20;1.50;;;;;;;6.69;100.00;97101.13;5035172;28;20219;-68
2023/11/18 05:18:50;;;;;;;2.80;1.90;;;;;;;6.51;100.00;97101.03;5036335;28;20205;-67
2023/11/18 05:21:17;;;;;;;3.00;1.53;;;;;;;6.59;100.00;97103.81;5035505;28;20211;-68
2023/11/18 05:23:43;;;;;;;2.20;1.50;;;;;;;6.36;100.00;97103.16;5035894;28;20707;-67
2023/11/18 05:26:10;;;;;;;2.87;1.60;;;;;;;6.56;100.00;97104.91;5035378;28;20209;-69
2023/11/18 05:28:38;;;;;;;2.50;1.63;;;;;;;6.57;100.00;97096.09;5036494;28;20304;-67
2023/11/18 05:31:06;;;;;;;2.63;1.60;;;;;;;6.65;100.00;97089.22;5035508;28;20206;-67
2023/11/18 05:33:35;;;;;;;2.27;1.60;;;;;;;6.68;100.00;97093.38;5035899;28;20205;-68
2023/11/18 05:36:04;;;;;;;4.67;3.07;;;;;;;6.34;100.00;97093.78;5034698;28;20288;-67
2023/11/18 05:38:34;;;;;;;2.97;1.90;;;;;;;6.56;100.00;97091.81;5035045;28;21098;-68
2023/11/18 05:41:03;;;;;;;5.90;1.97;;;;;;;6.55;100.00;97095.41;5035664;28;20205;-68
2023/11/18 05:43:35;;;;;;;2.90;1.70;;;;;;;6.76;100.00;97096.19;5035949;28;20229;-68
2023/11/18 05:46:20;;;;;;;2.60;1.57;;;;;;;6.66;100.00;97111.03;5035068;28;20205;-68
2023/11/18 05:48:49;;;;;;;3.20;2.00;;;;;;;6.85;100.00;97101.44;5036101;28;20224;-68
2023/11/18 05:51:19;;;;;;;2.77;1.50;;;;;;;6.57;100.00;97117.06;5035346;28;20204;-68
2023/11/18 05:53:46;;;;;;;2.53;1.40;;;;;;;6.67;100.00;97102.22;5035230;28;20702;-68
2023/11/18 05:56:13;;;;;;;3.10;1.90;;;;;;;6.74;100.00;97109.38;5034710;28;20289;-68
2023/11/18 05:58:40;;;;;;;2.90;1.63;;;;;;;6.74;100.00;97105.94;5035571;28;20202;-68
2023/11/18 06:01:08;;;;;;;2.60;1.53;;;;;;;6.79;100.00;97101.13;5035643;28;20205;-68
2023/11/18 06:03:37;;;;;;;5.93;1.90;;;;;;;6.80;100.00;97097.56;5035477;28;20348;-68
2023/11/18 06:06:06;;;;;;;2.80;1.70;;;;;;;7.01;100.00;97098.31;5034471;28;20717;-67
2023/11/18 06:08:33;;;;;;;2.50;1.70;;;;;;;6.87;100.00;97090.81;5035193;28;20201;-68
2023/11/18 06:10:59;;;;;;;3.03;1.70;;;;;;;6.76;100.00;97091.75;5038545;28;20204;-68
2023/11/18 06:13:27;;;;;;;3.47;1.80;;;;;;;6.84;100.00;97102.38;5039122;28;20224;-68
2023/11/18 06:15:53;;;;;;;2.30;1.50;;;;;;;6.89;100.00;97096.75;5038177;28;21153;-68
2023/11/18 06:18:20;;;;;;;2.83;2.27;;;;;;;6.88;100.00;97089.84;5038130;28;20205;-67
2023/11/18 06:20:46;;;;;;;2.27;1.53;;;;;;;6.94;100.00;97094.56;5039372;28;20216;-67
2023/11/18 06:23:18;;;;;;;3.47;1.83;;;;;;;7.05;100.00;97091.81;5038755;28;20239;-67
2023/11/18 06:25:45;;;;;;;3.07;1.80;;;;;;;6.99;100.00;97103.69;5038441;28;20235;-67
2023/11/18 06:28:12;;;;;;;2.43;1.67;;;;;;;6.98;100.00;97088.91;5038333;28;20392;-67
2023/11/18 06:30:38;;;;;;;2.50;1.60;;;;;;;6.94;100.00;97090.16;5038952;28;20983;-67
2023/11/18 06:33:05;;;;;;;2.97;1.93;;;;;;;7.00;100.00;97083.53;5038879;28;20205;-67
2023/11/18 06:35:35;;;;;;;3.53;2.13;;;;;;;6.84;100.00;97083.22;5037441;28;20253;-67
2023/11/18 06:38:02;;;;;;;7.20;2.37;;;;;;;6.87;100.00;97086.44;5038872;28;20213;-67
2023/11/18 06:40:30;;;;;;;6.03;2.80;;;;;;;7.09;100.00;97088.81;5038332;28;20213;-69
2023/11/18 06:43:01;;;;;;;8.27;3.17;;;;;;;6.93;100.00;97092.91;5038767;28;20225;-69
2023/11/18 06:45:31;;;;;;;10.97;4.83;;;;;;;6.95;100.00;97085.72;5038635;28;20225;-67
2023/11/18 06:47:58;;;;;;;10.83;4.67;;;;;;;6.96;100.00;97092.63;5038329;28;20216;-67
2023/11/18 06:50:26;;;;;;;10.80;4.50;;;;;;;7.02;100.00;97097.34;5038737;28;20209;-69
2023/11/18 06:52:53;;;;;;;7.70;3.63;;;;;;;6.98;100.00;97099.41;5038259;28;20198;-70
2023/11/18 06:55:20;;;;;;;7.37;3.57;;;;;;;7.00;100.00;97101.88;5037822;28;20295;-69
2023/11/18 06:57:48;;;;;;;7.57;4.37;;;;;;;7.09;100.00;97101.06;5038792;28;20212;-66
2023/11/18 07:00:15;;;;;;;7.40;3.60;;;;;;;7.09;100.00;97103.69;5038946;28;20201;-67
2023/11/18 07:02:42;;;;;;;8.50;4.50;;;;;;;7.07;100.00;97105.63;5037815;28;20225;-67
2023/11/18 07:05:09;;;;;;;10.23;4.97;;;;;;;7.19;100.00;97104.53;5038160;28;20225;-67
2023/11/18 07:07:37;;;;;;;6.93;3.30;;;;;;;7.12;100.00;97108.69;5037729;28;20201;-67
2023/11/18 07:10:05;;;;;;;9.27;3.80;;;;;;;7.07;100.00;97116.13;5037635;28;20696;-67
2023/11/18 07:12:33;;;;;;;6.83;2.60;;;;;;;7.10;100.00;97113.22;5039151;28;20284;-68
2023/11/18 07:15:02;;;;;;;5.67;2.47;;;;;;;7.19;100.00;97120.28;5037828;28;20236;-68
2023/11/18 07:17:28;;;;;;;6.13;3.00;;;;;;;7.11;100.00;97126.19;5038250;28;20560;-67
2023/11/18 07:19:55;;;;;;;4.70;2.63;;;;;;;7.14;100.00;97118.06;5038033;28;20201;-68
2023/11/18 07:22:22;;;;;;;6.27;2.70;;;;;;;7.14;100.00;97114.59;5037262;28;20340;-67
2023/11/18 07:24:48;;;;;;;5.27;2.90;;;;;;;7.20;100.00;97122.75;5037598;28;20225;-67
2023/11/18 07:27:15;;;;;;;5.27;3.13;;;;;;;7.18;100.00;97118.59;5037554;28;20885;-67
2023/11/18 07:29:44;;;;;;;6.10;3.50;;;;;;;7.26;100.00;97117.78;5037616;28;20694;-67
2023/11/18 07:32:12;;;;;;;6.40;3.20;;;;;;;7.42;100.00;97118.09;5036988;28;20208;-67
2023/11/18 07:34:40;;;;;;;6.00;2.90;;;;;;;7.34;100.00;97110.09;5037279;28;21246;-68
2023/11/18 07:37:08;;;;;;;4.43;2.60;;;;;;;7.30;100.00;97120.97;5038091;28;20201;-68
2023/11/18 07:39:43;;;;;;;3.50;2.33;;;;;;;7.36;100.00;97121.25;5037743;28;20299;-67
2023/11/18 07:42:11;;;;;;;4.80;2.73;;;;;;;7.43;100.00;97132.03;5037517;28;20209;-67
2023/11/18 07:44:38;;;;;;;12.20;6.00;;;;;;;7.44;100.00;97137.13;5037327;28;20275;-68
2023/11/18 07:47:05;;;;;;;18.57;8.43;;;;;;;7.39;100.00;97144.56;5037161;28;20201;-67
2023/11/18 07:49:33;;;;;;;9.33;4.37;;;;;;;7.51;100.00;97143.50;5037812;28;20824;-67
2023/11/18 07:51:59;;;;;;;8.47;3.77;;;;;;;7.54;100.00;97145.03;5037500;28;20201;-68
2023/11/18 07:54:26;;;;;;;10.27;4.50;;;;;;;7.70;100.00;97148.78;5037140;28;20213;-67
2023/11/18 07:56:54;;;;;;;6.53;2.97;;;;;;;7.40;100.00;97156.72;5037765;28;20201;-67
2023/11/18 07:59:20;;;;;;;8.30;3.47;;;;;;;7.54;100.00;97147.66;5037710;28;20202;-67
2023/11/18 08:01:48;;;;;;;7.37;2.90;;;;;;;7.51;100.00;97150.53;5037041;28;21101;-67
2023/11/18 08:04:15;;;;;;;5.27;2.40;;;;;;;7.47;100.00;97150.00;5036728;28;20706;-68
2023/11/18 08:06:43;;;;;;;5.83;3.10;;;;;;;7.39;100.00;97149.81;5037460;28;20216;-67
2023/11/18 08:09:13;;;;;;;5.50;3.00;;;;;;;7.34;100.00;97151.19;5037581;28;20205;-68
2023/11/18 08:11:41;;;;;;;6.07;3.33;;;;;;;7.41;100.00;97147.91;5037321;28;20201;-67
2023/11/18 08:14:07;;;;;;;5.07;2.77;;;;;;;7.07;100.00;97137.91;5037313;28;20239;-67
2023/11/18 08:16:34;;;;;;;7.17;3.70;;;;;;;7.22;100.00;97130.47;5037150;28;20232;-67
2023/11/18 08:19:02;;;;;;;8.30;3.67;;;;;;;7.16;100.00;97125.78;5037705;28;20197;-68
2023/11/18 08:21:29;;;;;;;7.87;3.93;;;;;;;7.33;100.00;97123.31;5036946;28;20212;-67
2023/11/18 08:24:00;;;;;;;10.43;4.77;;;;;;;7.63;100.00;97112.72;5036575;28;20652;-68
2023/11/18 08:26:26;;;;;;;7.87;3.83;;;;;;;7.48;100.00;97127.22;5036278;28;20200;-68
2023/11/18 08:28:53;;;;;;;7.27;4.00;;;;;;;7.39;100.00;97128.84;5037758;28;20209;-68
2023/11/18 08:31:19;;;;;;;7.70;3.27;;;;;;;7.48;100.00;97133.28;5037007;28;20205;-67
2023/11/18 08:33:46;;;;;;;9.17;4.17;;;;;;;7.65;100.00;97132.63;5035298;28;20208;-67
2023/11/18 08:36:12;;;;;;;6.47;3.57;;;;;;;7.59;100.00;97148.06;5035890;28;20212;-67
2023/11/18 08:38:40;;;;;;;7.13;3.90;;;;;;;7.48;100.00;97142.94;5037499;28;20675;-67
2023/11/18 08:41:09;;;;;;;8.40;4.37;;;;;;;7.70;100.00;97135.66;5036072;28;20292;-67
2023/11/18 08:43:35;;;;;;;6.27;3.37;;;;;;;7.77;100.00;97134.13;5036497;28;20639;-66
2023/11/18 08:46:02;;;;;;;10.20;5.07;;;;;;;7.89;100.00;97143.50;5036090;28;20201;-66
2023/11/18 08:48:28;;;;;;;12.40;5.23;;;;;;;7.89;100.00;97138.25;5036860;28;20204;-68
2023/11/18 08:50:54;;;;;;;12.63;5.00;;;;;;;7.92;100.00;97140.63;5036451;28;20197;-68
2023/11/18 08:53:25;;;;;;;8.93;4.47;;;;;;;7.68;100.00;97139.38;5036196;28;20193;-68
2023/11/18 08:55:53;;;;;;;11.00;4.67;;;;;;;7.93;100.00;97145.72;5035958;28;20219;-67
2023/11/18 08:58:22;;;;;;;8.30;3.73;;;;;;;8.15;100.00;97150.72;5035762;28;20292;-67
2023/11/18 09:00:53;;;;;;;5.67;3.33;;;;;;;8.00;100.00;97135.50;5036332;28;20209;-66
2023/11/18 09:03:28;;;;;;;8.20;3.80;;;;;;;8.29;100.00;97138.94;5035677;28;20225;-67
2023/11/18 09:06:03;;;;;;;6.57;3.40;;;;;;;8.01;100.00;97131.91;5035479;28;20228;-69
2023/11/18 09:08:33;;;;;;;6.57;3.33;;;;;;;7.82;100.00;97129.28;5035773;28;20205;-67
2023/11/18 09:11:00;;;;;;;4.90;2.93;;;;;;;7.58;100.00;97128.88;5036421;28;20889;-66
2023/11/18 09:13:29;;;;;;;7.43;3.40;;;;;;;7.78;100.00;97141.03;5036201;28;20197;-68
2023/11/18 09:15:57;;;;;;;7.27;3.90;;;;;;;7.88;100.00;97136.63;5035514;28;20216;-67
2023/11/18 09:18:24;;;;;;;8.33;3.30;;;;;;;7.85;100.00;97125.56;5036078;28;20209;-68
2023/11/18 09:20:52;;;;;;;5.43;3.17;;;;;;;7.92;100.00;97122.25;5035650;28;20208;-67
2023/11/18 09:23:19;;;;;;;6.23;3.57;;;;;;;8.09;100.00;97127.59;5035576;28;20253;-67
2023/11/18 09:25:47;;;;;;;9.03;4.00;;;;;;;7.90;100.00;97125.03;5034777;28;20232;-69
2023/11/18 09:28:15;;;;;;;5.57;3.27;;;;;;;7.65;100.00;97134.38;5036166;28;20202;-68
2023/11/18 09:30:49;;;;;;;6.37;3.40;;;;;;;7.84;100.00;97130.00;5035459;28;20197;-67
2023/11/18 09:33:25;;;;;;;9.80;4.03;;;;;;;7.90;100.00;97124.16;5036006;28;21030;-68
2023/11/18 09:35:58;;;;;;;7.57;3.70;;;;;;;7.96;100.00;97118.38;5035110;28;21119;-69
2023/11/18 09:38:25;;;;;;;6.43;3.57;;;;;;;7.99;100.00;97124.19;5035213;28;20233;-66
2023/11/18 09:40:53;;;;;;;6.80;3.70;;;;;;;8.05;100.00;97133.28;5037066;28;20194;-66
2023/11/18 09:43:21;;;;;;;5.40;3.23;;;;;;;7.96;100.00;97134.94;5035927;28;20210;-67
2023/11/18 09:45:54;;;;;;;10.37;5.03;;;;;;;8.10;100.00;97133.69;5038095;28;20220;-68
2023/11/18 09:48:25;;;;;;;7.23;3.87;;;;;;;8.14;100.00;97121.97;5039409;28;20240;-65
2023/11/18 09:50:52;;;;;;;11.33;4.43;;;;;;;8.40;100.00;97123.00;5040163;28;20734;-68
2023/11/18 09:53:20;;;;;;;8.40;4.73;;;;;;;8.62;100.00;97134.84;5039483;28;20205;-68
2023/11/18 09:55:55;;;;;;;7.87;3.90;;;;;;;8.63;100.00;97128.63;5039377;28;20245;-68
2023/11/18 09:58:24;;;;;;;4.83;3.07;;;;;;;8.58;100.00;97130.84;5039241;28;20200;-68
2023/11/18 10:00:58;;;;;;;6.07;3.30;;;;;;;8.77;100.00;97138.66;5039789;28;20200;-68
2023/11/18 10:03:25;;;;;;;6.93;3.20;;;;;;;8.88;100.00;97133.22;5039277;28;20202;-68
2023/11/18 10:05:54;;;;;;;9.00;3.10;;;;;;;8.65;100.00;97133.72;5039073;28;20306;-67
2023/11/18 10:08:25;;;;;;;7.17;3.37;;;;;;;8.72;100.00;97130.38;5039198;28;20209;-67
2023/11/18 10:11:04;;;;;;;6.80;3.37;;;;;;;8.65;100.00;97128.47;5039122;28;20663;-67
2023/11/18 10:13:34;;;;;;;7.30;3.53;;;;;;;8.82;100.00;97120.66;5039385;28;20200;-68
2023/11/18 10:16:04;;;;;;;5.97;3.33;;;;;;;8.60;100.00;97126.28;5038738;28;20228;-67
2023/11/18 10:18:34;;;;;;;7.90;4.30;;;;;;;8.25;100.00;97137.56;5039505;28;20217;-67
2023/11/18 10:21:03;;;;;;;5.03;3.20;;;;;;;8.31;100.00;97134.38;5039638;28;20259;-67
2023/11/18 10:23:33;;;;;;;5.80;3.13;;;;;;;8.57;100.00;97131.81;5038709;28;20201;-68
2023/11/18 10:26:02;;;;;;;5.57;3.00;;;;;;;8.56;100.00;97127.53;5037867;28;20988;-67
2023/11/18 10:28:32;;;;;;;7.20;3.33;;;;;;;8.86;100.00;97118.56;5039287;28;20286;-68
2023/11/18 10:31:03;;;;;;;4.33;2.63;;;;;;;9.01;100.00;97115.28;5038503;28;20725;-68
2023/11/18 10:33:31;;;;;;;6.27;3.30;;;;;;;9.30;100.00;97115.97;5038757;28;20671;-68
2023/11/18 10:36:02;;;;;;;4.63;2.40;;;;;;;8.73;100.00;97120.69;5038607;28;20203;-68
2023/11/18 10:38:30;;;;;;;5.07;2.63;;;;;;;8.58;100.00;97117.72;5038883;28;21176;-67
2023/11/18 10:40:58;;;;;;;4.63;2.63;;;;;;;8.87;100.00;97107.91;5038666;28;20197;-67
2023/11/18 10:43:25;;;;;;;4.07;2.33;;;;;;;9.22;100.00;97114.06;5038837;28;20209;-68
2023/11/18 10:45:53;;;;;;;4.57;2.17;;;;;;;9.43;100.00;97112.00;5038101;28;20685;-68
2023/11/18 10:48:20;;;;;;;6.97;2.83;;;;;;;9.54;100.00;97108.34;5038657;28;20209;-68
2023/11/18 10:50:49;;;;;;;6.20;3.03;;;;;;;9.59;100.00;97114.78;5038227;28;20205;-68
2023/11/18 10:53:17;;;;;;;6.53;2.93;;;;;;;9.83;100.00;97110.59;5038816;28;20223;-68
2023/11/18 10:55:44;;;;;;;4.67;3.13;;;;;;;9.58;100.00;97107.06;5036370;28;20218;-68
2023/11/18 10:58:14;;;;;;;5.57;2.67;;;;;;;9.77;100.00;97100.66;5037835;28;20278;-68
2023/11/18 11:00:51;;;;;;;6.43;3.57;;;;;;;9.54;100.00;97100.44;5039095;28;20219;-68
2023/11/18 11:03:18;;;;;;;7.40;3.60;;;;;;;9.24;100.00;97101.63;5038344;28;20763;-68
2023/11/18 11:05:44;;;;;;;4.97;3.10;;;;;;;8.94;100.00;97098.47;5037678;28;20228;-67
2023/11/18 11:08:16;;;;;;;4.43;2.40;;;;;;;9.23;100.00;97096.50;5038330;28;20227;-68
2023/11/18 11:10:42;;;;;;;3.83;2.47;;;;;;;9.22;100.00;97108.00;5037817;28;20201;-68
2023/11/18 11:13:10;;;;;;;3.90;2.17;;;;;;;9.33;100.00;97113.88;5038005;28;20208;-68
2023/11/18 11:15:42;;;;;;;6.27;3.03;;;;;;;9.27;100.00;97105.75;5037291;28;20308;-68
2023/11/18 11:18:14;;;;;;;4.80;2.70;;;;;;;9.27;100.00;97097.88;5038562;28;20206;-67
2023/11/18 11:20:48;;;;;;;5.57;2.87;;;;;;;8.98;100.00;97099.00;5037839;28;20197;-68
2023/11/18 11:23:22;;;;;;;4.83;3.00;;;;;;;8.95;100.00;97094.88;5038730;28;20232;-67
2023/11/18 11:26:00;;;;;;;5.57;2.73;;;;;;;8.78;100.00;97093.03;5037275;28;20221;-67
2023/11/18 11:28:39;;;;;;;6.07;3.47;;;;;;;8.94;100.00;97082.69;5037910;28;20207;-68
2023/11/18 11:31:15;;;;;;;6.07;3.17;;;;;;;8.83;100.00;97079.44;5037703;28;20254;-68
2023/11/18 11:33:47;;;;;;;5.07;2.90;;;;;;;8.88;100.00;97083.25;5038404;28;20558;-67
2023/11/18 11:36:22;;;;;;;6.13;3.77;;;;;;;8.99;100.00;97083.09;5036867;28;20197;-67
2023/11/18 11:38:55;;;;;;;6.73;3.37;;;;;;;9.24;100.00;97087.63;5037977;28;20303;-68